sensor_id;sensor_type;location;lat;lon;timestamp;temperature;humidity
53410;DHT22;66590;50.734;4.246;2023-01-08T00:00:54;11.10;99.90
53410;DHT22;66590;50.734;4.246;2023-01-08T00:03:21;11.20;99.90
53410;DHT22;66590;50.734;4.246;2023-01-08T00:05:48;11.10;99.90
53410;DHT22;66590;50.734;4.246;2023-01-08T00:08:16;11.10;99.90
53410;DHT22;66590;50.734;4.246;2023-01-08T00:10:43;11.00;99.90
53410;DHT22;66590;50.734;4.246;2023-01-08T00:13:10;10.90;99.90
53410;DHT22;66590;50.734;4.246;2023-01-08T00:15:37;10.40;99.90
53410;DHT22;66590;50.734;4.246;2023-01-08T00:18:05;10.10;99.90
53410;DHT22;66590;50.734;4.246;2023-01-08T00:20:32;9.80;99.90
53410;DHT22;66590;50.734;4.246;2023-01-08T00:22:59;9.60;99.90
53410;DHT22;66590;50.734;4.246;2023-01-08T00:25:26;9.30;99.90
53410;DHT22;66590;50.734;4.246;2023-01-08T00:27:53;9.10;99.90
53410;DHT22;66590;50.734;4.246;2023-01-08T00:30:20;8.90;99.90
53410;DHT22;66590;50.734;4.246;2023-01-08T00:32:47;8.80;99.90
53410;DHT22;66590;50.734;4.246;2023-01-08T00:35:15;8.80;99.90
53410;DHT22;66590;50.734;4.246;2023-01-08T00:37:42;8.80;99.90
53410;DHT22;66590;50.734;4.246;2023-01-08T00:40:10;8.90;99.90
53410;DHT22;66590;50.734;4.246;2023-01-08T00:42:37;8.80;99.90
53410;DHT22;66590;50.734;4.246;2023-01-08T00:45:04;8.80;99.90
53410;DHT22;66590;50.734;4.246;2023-01-08T00:47:32;8.80;99.90
53410;DHT22;66590;50.734;4.246;2023-01-08T00:49:59;8.70;99.90
53410;DHT22;66590;50.734;4.246;2023-01-08T00:52:27;8.80;99.90
53410;DHT22;66590;50.734;4.246;2023-01-08T00:54:54;8.90;99.90
53410;DHT22;66590;50.734;4.246;2023-01-08T00:57:21;9.00;99.90
53410;DHT22;66590;50.734;4.246;2023-01-08T00:59:48;9.00;99.90
53410;DHT22;66590;50.734;4.246;2023-01-08T01:02:15;8.90;99.90
53410;DHT22;66590;50.734;4.246;2023-01-08T01:04:42;8.80;99.90
53410;DHT22;66590;50.734;4.246;2023-01-08T01:07:09;8.70;99.90
53410;DHT22;66590;50.734;4.246;2023-01-08T01:09:37;8.60;99.90
53410;DHT22;66590;50.734;4.246;2023-01-08T01:12:05;8.80;99.90
53410;DHT22;66590;50.734;4.246;2023-01-08T01:14:32;8.90;99.90
53410;DHT22;66590;50.734;4.246;2023-01-08T01:16:59;8.90;99.90
53410;DHT22;66590;50.734;4.246;2023-01-08T01:19:26;8.90;99.90
53410;DHT22;66590;50.734;4.246;2023-01-08T01:21:53;8.90;99.90
53410;DHT22;66590;50.734;4.246;2023-01-08T01:24:20;9.00;99.90
53410;DHT22;66590;50.734;4.246;2023-01-08T01:26:48;8.90;99.90
53410;DHT22;66590;50.734;4.246;2023-01-08T01:29:15;9.10;99.90
53410;DHT22;66590;50.734;4.246;2023-01-08T01:31:42;9.30;99.90
53410;DHT22;66590;50.734;4.246;2023-01-08T01:34:09;9.30;99.90
53410;DHT22;66590;50.734;4.246;2023-01-08T01:36:36;9.20;99.90
53410;DHT22;66590;50.734;4.246;2023-01-08T01:39:04;9.20;99.90
53410;DHT22;66590;50.734;4.246;2023-01-08T01:41:34;9.30;99.90
53410;DHT22;66590;50.734;4.246;2023-01-08T01:44:34;9.40;99.90
53410;DHT22;66590;50.734;4.246;2023-01-08T01:47:04;9.40;99.90
53410;DHT22;66590;50.734;4.246;2023-01-08T01:49:32;9.40;99.90
53410;DHT22;66590;50.734;4.246;2023-01-08T01:52:00;9.30;99.90
53410;DHT22;66590;50.734;4.246;2023-01-08T01:54:29;9.40;99.90
53410;DHT22;66590;50.734;4.246;2023-01-08T01:56:57;9.30;99.90
53410;DHT22;66590;50.734;4.246;2023-01-08T01:59:25;9.40;99.90
53410;DHT22;66590;50.734;4.246;2023-01-08T02:01:54;9.30;99.90
53410;DHT22;66590;50.734;4.246;2023-01-08T02:04:22;9.40;99.90
53410;DHT22;66590;50.734;4.246;2023-01-08T02:06:56;9.50;99.90
53410;DHT22;66590;50.734;4.246;2023-01-08T02:09:39;9.50;99.90
53410;DHT22;66590;50.734;4.246;2023-01-08T02:12:10;9.50;99.90
53410;DHT22;66590;50.734;4.246;2023-01-08T02:14:59;9.50;99.90
53410;DHT22;66590;50.734;4.246;2023-01-08T02:17:35;9.60;99.90
53410;DHT22;66590;50.734;4.246;2023-01-08T02:20:15;9.60;99.90
53410;DHT22;66590;50.734;4.246;2023-01-08T02:23:10;9.60;99.90
53410;DHT22;66590;50.734;4.246;2023-01-08T02:28:56;9.50;99.90
53410;DHT22;66590;50.734;4.246;2023-01-08T02:31:31;9.50;99.90
53410;DHT22;66590;50.734;4.246;2023-01-08T02:33:58;9.30;99.90
53410;DHT22;66590;50.734;4.246;2023-01-08T02:36:35;9.20;99.90
53410;DHT22;66590;50.734;4.246;2023-01-08T02:39:13;9.10;99.90
53410;DHT22;66590;50.734;4.246;2023-01-08T02:41:52;9.30;99.90
53410;DHT22;66590;50.734;4.246;2023-01-08T02:44:27;9.40;99.90
53410;DHT22;66590;50.734;4.246;2023-01-08T02:47:05;9.50;99.90
53410;DHT22;66590;50.734;4.246;2023-01-08T02:49:38;9.60;99.90
53410;DHT22;66590;50.734;4.246;2023-01-08T02:52:15;9.50;99.90
53410;DHT22;66590;50.734;4.246;2023-01-08T02:54:44;9.60;99.90
53410;DHT22;66590;50.734;4.246;2023-01-08T02:57:19;9.80;99.90
53410;DHT22;66590;50.734;4.246;2023-01-08T02:59:48;9.80;99.90
53410;DHT22;66590;50.734;4.246;2023-01-08T03:02:22;9.80;99.90
53410;DHT22;66590;50.734;4.246;2023-01-08T03:04:53;9.70;99.90
53410;DHT22;66590;50.734;4.246;2023-01-08T03:07:30;9.70;99.90
53410;DHT22;66590;50.734;4.246;2023-01-08T03:09:57;9.70;99.90
53410;DHT22;66590;50.734;4.246;2023-01-08T03:12:38;9.60;99.90
53410;DHT22;66590;50.734;4.246;2023-01-08T03:15:13;9.50;99.90
53410;DHT22;66590;50.734;4.246;2023-01-08T03:17:51;9.30;99.90
53410;DHT22;66590;50.734;4.246;2023-01-08T03:20:22;9.40;99.90
53410;DHT22;66590;50.734;4.246;2023-01-08T03:22:57;9.30;99.90
53410;DHT22;66590;50.734;4.246;2023-01-08T03:25:27;9.10;99.90
53410;DHT22;66590;50.734;4.246;2023-01-08T03:28:03;9.00;99.90
53410;DHT22;66590;50.734;4.246;2023-01-08T03:30:33;9.00;99.90
53410;DHT22;66590;50.734;4.246;2023-01-08T03:33:09;8.80;99.90
53410;DHT22;66590;50.734;4.246;2023-01-08T03:35:39;8.90;99.90
53410;DHT22;66590;50.734;4.246;2023-01-08T03:38:22;9.00;99.90
53410;DHT22;66590;50.734;4.246;2023-01-08T03:40:53;8.90;99.90
53410;DHT22;66590;50.734;4.246;2023-01-08T03:43:28;8.90;99.90
53410;DHT22;66590;50.734;4.246;2023-01-08T03:46:00;9.00;99.90
53410;DHT22;66590;50.734;4.246;2023-01-08T03:48:34;8.90;99.90
53410;DHT22;66590;50.734;4.246;2023-01-08T03:51:02;8.90;99.90
53410;DHT22;66590;50.734;4.246;2023-01-08T03:53:36;8.90;99.90
53410;DHT22;66590;50.734;4.246;2023-01-08T03:56:03;8.90;99.90
53410;DHT22;66590;50.734;4.246;2023-01-08T03:58:37;8.90;99.90
53410;DHT22;66590;50.734;4.246;2023-01-08T04:01:05;9.10;99.90
53410;DHT22;66590;50.734;4.246;2023-01-08T04:03:39;9.00;99.90
53410;DHT22;66590;50.734;4.246;2023-01-08T04:06:06;8.90;99.90
53410;DHT22;66590;50.734;4.246;2023-01-08T04:08:40;8.90;99.90
53410;DHT22;66590;50.734;4.246;2023-01-08T04:11:06;8.80;99.90
53410;DHT22;66590;50.734;4.246;2023-01-08T04:13:33;8.80;99.90
53410;DHT22;66590;50.734;4.246;2023-01-08T04:16:08;8.90;99.90
53410;DHT22;66590;50.734;4.246;2023-01-08T04:18:35;8.80;99.90
53410;DHT22;66590;50.734;4.246;2023-01-08T04:21:09;8.70;99.90
53410;DHT22;66590;50.734;4.246;2023-01-08T04:23:36;8.70;99.90
53410;DHT22;66590;50.734;4.246;2023-01-08T04:26:09;8.70;99.90
53410;DHT22;66590;50.734;4.246;2023-01-08T04:28:36;8.60;99.90
53410;DHT22;66590;50.734;4.246;2023-01-08T04:31:11;8.60;99.90
53410;DHT22;66590;50.734;4.246;2023-01-08T04:33:38;8.50;99.90
53410;DHT22;66590;50.734;4.246;2023-01-08T04:36:13;8.50;99.90
53410;DHT22;66590;50.734;4.246;2023-01-08T04:38:40;8.50;99.90
53410;DHT22;66590;50.734;4.246;2023-01-08T04:41:14;8.40;99.90
53410;DHT22;66590;50.734;4.246;2023-01-08T04:43:41;8.40;99.90
53410;DHT22;66590;50.734;4.246;2023-01-08T04:46:15;8.40;99.90
53410;DHT22;66590;50.734;4.246;2023-01-08T04:48:42;8.30;99.90
53410;DHT22;66590;50.734;4.246;2023-01-08T04:51:16;8.30;99.90
53410;DHT22;66590;50.734;4.246;2023-01-08T04:53:42;8.40;99.90
53410;DHT22;66590;50.734;4.246;2023-01-08T04:56:16;8.50;99.90
53410;DHT22;66590;50.734;4.246;2023-01-08T04:58:42;8.30;99.90
53410;DHT22;66590;50.734;4.246;2023-01-08T05:01:19;8.40;99.90
53410;DHT22;66590;50.734;4.246;2023-01-08T05:03:47;8.30;99.90
53410;DHT22;66590;50.734;4.246;2023-01-08T05:06:21;8.30;99.90
53410;DHT22;66590;50.734;4.246;2023-01-08T05:08:48;8.20;99.90
53410;DHT22;66590;50.734;4.246;2023-01-08T05:11:22;8.20;99.90
53410;DHT22;66590;50.734;4.246;2023-01-08T05:13:50;8.10;99.90
53410;DHT22;66590;50.734;4.246;2023-01-08T05:16:25;8.10;99.90
53410;DHT22;66590;50.734;4.246;2023-01-08T05:18:52;8.10;99.90
53410;DHT22;66590;50.734;4.246;2023-01-08T05:21:26;8.10;99.90
53410;DHT22;66590;50.734;4.246;2023-01-08T05:23:53;8.10;99.90
53410;DHT22;66590;50.734;4.246;2023-01-08T05:26:26;8.10;99.90
53410;DHT22;66590;50.734;4.246;2023-01-08T05:28:53;8.10;99.90
53410;DHT22;66590;50.734;4.246;2023-01-08T05:31:27;8.10;99.90
53410;DHT22;66590;50.734;4.246;2023-01-08T05:33:57;8.10;99.90
53410;DHT22;66590;50.734;4.246;2023-01-08T05:36:31;7.80;99.90
53410;DHT22;66590;50.734;4.246;2023-01-08T05:38:58;7.90;99.90
53410;DHT22;66590;50.734;4.246;2023-01-08T05:41:31;7.80;99.90
53410;DHT22;66590;50.734;4.246;2023-01-08T05:43:57;7.90;99.90
53410;DHT22;66590;50.734;4.246;2023-01-08T05:46:33;8.00;99.90
53410;DHT22;66590;50.734;4.246;2023-01-08T05:49:00;7.90;99.90
53410;DHT22;66590;50.734;4.246;2023-01-08T05:51:34;7.90;99.90
53410;DHT22;66590;50.734;4.246;2023-01-08T05:54:01;7.90;99.90
53410;DHT22;66590;50.734;4.246;2023-01-08T05:56:34;7.90;99.90
53410;DHT22;66590;50.734;4.246;2023-01-08T05:59:01;7.90;99.90
53410;DHT22;66590;50.734;4.246;2023-01-08T06:01:35;8.00;99.90
53410;DHT22;66590;50.734;4.246;2023-01-08T06:04:02;8.00;99.90
53410;DHT22;66590;50.734;4.246;2023-01-08T06:06:36;7.90;99.90
53410;DHT22;66590;50.734;4.246;2023-01-08T06:09:03;7.90;99.90
53410;DHT22;66590;50.734;4.246;2023-01-08T06:11:37;7.90;99.90
53410;DHT22;66590;50.734;4.246;2023-01-08T06:14:10;8.00;99.90
53410;DHT22;66590;50.734;4.246;2023-01-08T06:16:45;8.00;99.90
53410;DHT22;66590;50.734;4.246;2023-01-08T06:19:18;8.00;99.90
53410;DHT22;66590;50.734;4.246;2023-01-08T06:21:52;8.00;99.90
53410;DHT22;66590;50.734;4.246;2023-01-08T06:24:18;8.00;99.90
53410;DHT22;66590;50.734;4.246;2023-01-08T06:26:52;8.00;99.90
53410;DHT22;66590;50.734;4.246;2023-01-08T06:29:19;8.00;99.90
53410;DHT22;66590;50.734;4.246;2023-01-08T06:31:54;7.90;99.90
53410;DHT22;66590;50.734;4.246;2023-01-08T06:34:21;8.00;99.90
53410;DHT22;66590;50.734;4.246;2023-01-08T06:36:55;8.00;99.90
53410;DHT22;66590;50.734;4.246;2023-01-08T06:39:22;7.90;99.90
53410;DHT22;66590;50.734;4.246;2023-01-08T06:41:56;8.00;99.90
53410;DHT22;66590;50.734;4.246;2023-01-08T06:44:23;8.20;99.90
53410;DHT22;66590;50.734;4.246;2023-01-08T06:46:57;8.20;99.90
53410;DHT22;66590;50.734;4.246;2023-01-08T06:49:24;8.30;99.90
53410;DHT22;66590;50.734;4.246;2023-01-08T06:51:58;8.30;99.90
53410;DHT22;66590;50.734;4.246;2023-01-08T06:54:24;8.30;99.90
53410;DHT22;66590;50.734;4.246;2023-01-08T06:56:58;8.20;99.90
53410;DHT22;66590;50.734;4.246;2023-01-08T06:59:24;8.20;99.90
53410;DHT22;66590;50.734;4.246;2023-01-08T07:01:59;8.20;99.90
53410;DHT22;66590;50.734;4.246;2023-01-08T07:04:26;8.20;99.90
53410;DHT22;66590;50.734;4.246;2023-01-08T07:07:00;8.40;99.90
53410;DHT22;66590;50.734;4.246;2023-01-08T07:09:26;8.40;99.90
53410;DHT22;66590;50.734;4.246;2023-01-08T07:11:53;8.40;99.90
53410;DHT22;66590;50.734;4.246;2023-01-08T07:14:27;8.50;99.90
53410;DHT22;66590;50.734;4.246;2023-01-08T07:16:53;8.50;99.90
53410;DHT22;66590;50.734;4.246;2023-01-08T07:19:28;8.50;99.90
53410;DHT22;66590;50.734;4.246;2023-01-08T07:21:55;8.50;99.90
53410;DHT22;66590;50.734;4.246;2023-01-08T07:24:29;8.60;99.90
53410;DHT22;66590;50.734;4.246;2023-01-08T07:26:56;8.60;99.90
53410;DHT22;66590;50.734;4.246;2023-01-08T07:29:30;8.60;99.90
53410;DHT22;66590;50.734;4.246;2023-01-08T07:31:56;8.60;99.90
53410;DHT22;66590;50.734;4.246;2023-01-08T07:34:31;8.70;99.90
53410;DHT22;66590;50.734;4.246;2023-01-08T07:36:58;8.70;99.90
53410;DHT22;66590;50.734;4.246;2023-01-08T07:39:32;8.70;99.90
53410;DHT22;66590;50.734;4.246;2023-01-08T07:41:59;8.70;99.90
53410;DHT22;66590;50.734;4.246;2023-01-08T07:44:32;8.70;99.90
53410;DHT22;66590;50.734;4.246;2023-01-08T07:46:58;8.80;99.90
53410;DHT22;66590;50.734;4.246;2023-01-08T07:49:33;8.80;99.90
53410;DHT22;66590;50.734;4.246;2023-01-08T07:52:00;8.80;99.90
53410;DHT22;66590;50.734;4.246;2023-01-08T07:54:34;8.80;99.90
53410;DHT22;66590;50.734;4.246;2023-01-08T07:57:00;8.80;99.90
53410;DHT22;66590;50.734;4.246;2023-01-08T07:59:34;8.80;99.90
53410;DHT22;66590;50.734;4.246;2023-01-08T08:02:01;8.80;99.90
53410;DHT22;66590;50.734;4.246;2023-01-08T08:04:35;8.80;99.90
53410;DHT22;66590;50.734;4.246;2023-01-08T08:07:02;8.80;99.90
53410;DHT22;66590;50.734;4.246;2023-01-08T08:09:36;8.70;99.90
53410;DHT22;66590;50.734;4.246;2023-01-08T08:12:03;8.70;99.90
53410;DHT22;66590;50.734;4.246;2023-01-08T08:14:37;8.70;99.90
53410;DHT22;66590;50.734;4.246;2023-01-08T08:17:04;8.80;99.90
53410;DHT22;66590;50.734;4.246;2023-01-08T08:19:38;8.80;99.90
53410;DHT22;66590;50.734;4.246;2023-01-08T08:22:05;8.90;99.90
53410;DHT22;66590;50.734;4.246;2023-01-08T08:24:39;8.90;99.90
53410;DHT22;66590;50.734;4.246;2023-01-08T08:27:06;9.10;99.90
53410;DHT22;66590;50.734;4.246;2023-01-08T08:29:40;9.10;99.90
53410;DHT22;66590;50.734;4.246;2023-01-08T08:32:07;9.20;99.90
53410;DHT22;66590;50.734;4.246;2023-01-08T08:34:41;9.10;99.90
53410;DHT22;66590;50.734;4.246;2023-01-08T08:37:08;9.10;99.90
53410;DHT22;66590;50.734;4.246;2023-01-08T08:39:42;9.00;99.90
53410;DHT22;66590;50.734;4.246;2023-01-08T08:42:09;9.00;99.90
53410;DHT22;66590;50.734;4.246;2023-01-08T08:44:42;8.90;99.90
53410;DHT22;66590;50.734;4.246;2023-01-08T08:47:09;8.90;99.90
53410;DHT22;66590;50.734;4.246;2023-01-08T08:49:44;9.00;99.90
53410;DHT22;66590;50.734;4.246;2023-01-08T08:52:11;9.10;99.90
53410;DHT22;66590;50.734;4.246;2023-01-08T08:54:45;9.10;99.90
53410;DHT22;66590;50.734;4.246;2023-01-08T08:57:12;9.10;99.90
53410;DHT22;66590;50.734;4.246;2023-01-08T08:59:45;9.10;99.90
53410;DHT22;66590;50.734;4.246;2023-01-08T09:02:11;9.00;99.90
53410;DHT22;66590;50.734;4.246;2023-01-08T09:04:46;9.10;99.90
53410;DHT22;66590;50.734;4.246;2023-01-08T09:07:13;9.20;99.90
53410;DHT22;66590;50.734;4.246;2023-01-08T09:09:47;9.00;99.90
53410;DHT22;66590;50.734;4.246;2023-01-08T09:12:13;9.10;99.90
53410;DHT22;66590;50.734;4.246;2023-01-08T09:14:47;9.10;99.90
53410;DHT22;66590;50.734;4.246;2023-01-08T09:17:13;9.00;99.90
53410;DHT22;66590;50.734;4.246;2023-01-08T09:19:48;9.00;99.90
53410;DHT22;66590;50.734;4.246;2023-01-08T09:22:15;8.90;99.90
53410;DHT22;66590;50.734;4.246;2023-01-08T09:24:49;8.90;99.90
53410;DHT22;66590;50.734;4.246;2023-01-08T09:27:16;8.70;99.90
53410;DHT22;66590;50.734;4.246;2023-01-08T09:29:49;8.80;99.90
53410;DHT22;66590;50.734;4.246;2023-01-08T09:32:16;8.80;99.90
53410;DHT22;66590;50.734;4.246;2023-01-08T09:34:50;8.80;99.90
53410;DHT22;66590;50.734;4.246;2023-01-08T09:37:17;8.80;99.90
53410;DHT22;66590;50.734;4.246;2023-01-08T09:39:51;8.80;99.90
53410;DHT22;66590;50.734;4.246;2023-01-08T09:42:28;8.90;99.90
53410;DHT22;66590;50.734;4.246;2023-01-08T09:45:02;9.10;99.90
53410;DHT22;66590;50.734;4.246;2023-01-08T09:47:31;9.20;99.90
53410;DHT22;66590;50.734;4.246;2023-01-08T09:50:12;9.20;99.90
53410;DHT22;66590;50.734;4.246;2023-01-08T09:52:40;9.20;99.90
53410;DHT22;66590;50.734;4.246;2023-01-08T09:55:14;9.20;99.90
53410;DHT22;66590;50.734;4.246;2023-01-08T09:57:42;9.20;99.90
53410;DHT22;66590;50.734;4.246;2023-01-08T10:00:20;9.20;99.90
53410;DHT22;66590;50.734;4.246;2023-01-08T10:02:47;9.20;99.90
53410;DHT22;66590;50.734;4.246;2023-01-08T10:05:24;9.10;99.90
53410;DHT22;66590;50.734;4.246;2023-01-08T10:07:51;9.20;99.90
53410;DHT22;66590;50.734;4.246;2023-01-08T10:10:27;9.20;99.90
53410;DHT22;66590;50.734;4.246;2023-01-08T10:12:55;9.20;99.90
53410;DHT22;66590;50.734;4.246;2023-01-08T10:15:29;9.20;99.90
53410;DHT22;66590;50.734;4.246;2023-01-08T10:18:01;9.20;99.90
53410;DHT22;66590;50.734;4.246;2023-01-08T10:20:37;9.40;99.90
53410;DHT22;66590;50.734;4.246;2023-01-08T10:23:09;9.30;99.90
53410;DHT22;66590;50.734;4.246;2023-01-08T10:25:48;9.50;99.90
53410;DHT22;66590;50.734;4.246;2023-01-08T10:28:19;9.60;99.90
53410;DHT22;66590;50.734;4.246;2023-01-08T10:30:49;9.60;99.90
53410;DHT22;66590;50.734;4.246;2023-01-08T10:33:20;9.60;99.90
53410;DHT22;66590;50.734;4.246;2023-01-08T10:35:56;9.60;99.90
53410;DHT22;66590;50.734;4.246;2023-01-08T10:38:28;9.80;99.90
53410;DHT22;66590;50.734;4.246;2023-01-08T10:41:00;10.00;99.90
53410;DHT22;66590;50.734;4.246;2023-01-08T10:43:31;10.10;99.90
53410;DHT22;66590;50.734;4.246;2023-01-08T10:46:01;10.20;99.90
53410;DHT22;66590;50.734;4.246;2023-01-08T10:48:34;10.20;99.90
53410;DHT22;66590;50.734;4.246;2023-01-08T10:51:06;10.20;99.90
53410;DHT22;66590;50.734;4.246;2023-01-08T10:53:33;10.30;99.90
53410;DHT22;66590;50.734;4.246;2023-01-08T10:56:01;10.20;99.90
53410;DHT22;66590;50.734;4.246;2023-01-08T10:58:38;10.10;99.90
53410;DHT22;66590;50.734;4.246;2023-01-08T11:01:10;10.10;99.90
53410;DHT22;66590;50.734;4.246;2023-01-08T11:03:37;10.10;99.90
53410;DHT22;66590;50.734;4.246;2023-01-08T11:06:16;10.20;99.90
53410;DHT22;66590;50.734;4.246;2023-01-08T11:08:49;10.40;99.90
53410;DHT22;66590;50.734;4.246;2023-01-08T11:11:17;10.50;99.90
53410;DHT22;66590;50.734;4.246;2023-01-08T11:13:55;10.60;99.90
53410;DHT22;66590;50.734;4.246;2023-01-08T11:16:30;10.60;99.90
53410;DHT22;66590;50.734;4.246;2023-01-08T11:18:59;10.60;99.90
53410;DHT22;66590;50.734;4.246;2023-01-08T11:21:28;10.60;99.90
53410;DHT22;66590;50.734;4.246;2023-01-08T11:24:16;10.80;99.90
53410;DHT22;66590;50.734;4.246;2023-01-08T11:26:47;10.90;99.90
53410;DHT22;66590;50.734;4.246;2023-01-08T11:29:19;11.10;99.90
53410;DHT22;66590;50.734;4.246;2023-01-08T11:31:50;10.90;99.90
53410;DHT22;66590;50.734;4.246;2023-01-08T11:34:23;11.00;99.90
53410;DHT22;66590;50.734;4.246;2023-01-08T11:36:58;11.10;99.90
53410;DHT22;66590;50.734;4.246;2023-01-08T11:39:28;10.80;99.90
53410;DHT22;66590;50.734;4.246;2023-01-08T11:42:08;10.90;99.90
53410;DHT22;66590;50.734;4.246;2023-01-08T11:44:47;11.00;99.90
53410;DHT22;66590;50.734;4.246;2023-01-08T11:47:17;11.00;99.90
53410;DHT22;66590;50.734;4.246;2023-01-08T11:50:12;10.90;99.90
53410;DHT22;66590;50.734;4.246;2023-01-08T11:52:51;10.80;99.90
53410;DHT22;66590;50.734;4.246;2023-01-08T11:55:29;10.80;99.90
53410;DHT22;66590;50.734;4.246;2023-01-08T11:58:15;10.90;99.90
53410;DHT22;66590;50.734;4.246;2023-01-08T12:00:57;11.10;99.90
53410;DHT22;66590;50.734;4.246;2023-01-08T12:03:30;11.00;99.90
53410;DHT22;66590;50.734;4.246;2023-01-08T12:06:21;10.90;99.90
53410;DHT22;66590;50.734;4.246;2023-01-08T12:08:57;10.80;99.90
53410;DHT22;66590;50.734;4.246;2023-01-08T12:11:29;10.80;99.90
53410;DHT22;66590;50.734;4.246;2023-01-08T12:14:12;10.70;99.90
53410;DHT22;66590;50.734;4.246;2023-01-08T12:16:58;10.70;99.90
53410;DHT22;66590;50.734;4.246;2023-01-08T12:19:41;10.60;99.90
53410;DHT22;66590;50.734;4.246;2023-01-08T12:22:32;10.70;99.90
53410;DHT22;66590;50.734;4.246;2023-01-08T12:25:27;10.70;99.90
53410;DHT22;66590;50.734;4.246;2023-01-08T12:28:05;10.70;99.90
53410;DHT22;66590;50.734;4.246;2023-01-08T12:30:50;10.60;99.90
53410;DHT22;66590;50.734;4.246;2023-01-08T12:33:30;10.70;99.90
53410;DHT22;66590;50.734;4.246;2023-01-08T12:36:02;10.90;99.90
53410;DHT22;66590;50.734;4.246;2023-01-08T12:38:32;11.20;99.90
53410;DHT22;66590;50.734;4.246;2023-01-08T12:41:04;11.20;99.90
53410;DHT22;66590;50.734;4.246;2023-01-08T12:43:40;11.20;99.90
53410;DHT22;66590;50.734;4.246;2023-01-08T12:46:11;11.20;99.90
53410;DHT22;66590;50.734;4.246;2023-01-08T12:48:40;11.10;99.90
53410;DHT22;66590;50.734;4.246;2023-01-08T12:51:11;11.20;99.90
53410;DHT22;66590;50.734;4.246;2023-01-08T12:53:45;11.20;99.90
53410;DHT22;66590;50.734;4.246;2023-01-08T12:56:22;11.20;99.90
53410;DHT22;66590;50.734;4.246;2023-01-08T12:59:10;11.30;99.90
53410;DHT22;66590;50.734;4.246;2023-01-08T13:01:44;11.30;99.90
53410;DHT22;66590;50.734;4.246;2023-01-08T13:04:13;11.20;99.90
53410;DHT22;66590;50.734;4.246;2023-01-08T13:06:49;11.00;99.90
53410;DHT22;66590;50.734;4.246;2023-01-08T13:09:21;10.90;99.90
53410;DHT22;66590;50.734;4.246;2023-01-08T13:11:53;10.90;99.90
53410;DHT22;66590;50.734;4.246;2023-01-08T13:14:21;11.00;99.90
53410;DHT22;66590;50.734;4.246;2023-01-08T13:17:00;11.10;99.90
53410;DHT22;66590;50.734;4.246;2023-01-08T13:19:29;11.00;99.90
53410;DHT22;66590;50.734;4.246;2023-01-08T13:21:58;11.10;99.90
53410;DHT22;66590;50.734;4.246;2023-01-08T13:24:30;11.20;99.90
53410;DHT22;66590;50.734;4.246;2023-01-08T13:27:10;11.20;99.90
53410;DHT22;66590;50.734;4.246;2023-01-08T13:29:39;11.00;99.90
53410;DHT22;66590;50.734;4.246;2023-01-08T13:32:35;10.90;99.90
53410;DHT22;66590;50.734;4.246;2023-01-08T13:35:21;11.00;99.90
53410;DHT22;66590;50.734;4.246;2023-01-08T13:37:50;11.10;99.90
53410;DHT22;66590;50.734;4.246;2023-01-08T13:40:37;11.10;99.90
53410;DHT22;66590;50.734;4.246;2023-01-08T13:43:12;10.90;99.90
53410;DHT22;66590;50.734;4.246;2023-01-08T13:45:40;11.00;99.90
53410;DHT22;66590;50.734;4.246;2023-01-08T13:48:20;11.00;99.90
53410;DHT22;66590;50.734;4.246;2023-01-08T13:50:47;10.90;99.90
53410;DHT22;66590;50.734;4.246;2023-01-08T13:53:14;10.80;99.90
53410;DHT22;66590;50.734;4.246;2023-01-08T13:55:47;10.70;99.90
53410;DHT22;66590;50.734;4.246;2023-01-08T13:58:24;10.70;99.90
53410;DHT22;66590;50.734;4.246;2023-01-08T14:00:52;10.70;99.90
53410;DHT22;66590;50.734;4.246;2023-01-08T14:03:24;10.70;99.90
53410;DHT22;66590;50.734;4.246;2023-01-08T14:05:52;10.70;99.90
53410;DHT22;66590;50.734;4.246;2023-01-08T14:08:23;10.60;99.90
53410;DHT22;66590;50.734;4.246;2023-01-08T14:10:51;10.60;99.90
53410;DHT22;66590;50.734;4.246;2023-01-08T14:13:23;10.70;99.90
53410;DHT22;66590;50.734;4.246;2023-01-08T14:15:52;10.70;99.90
53410;DHT22;66590;50.734;4.246;2023-01-08T14:18:20;10.60;99.90
53410;DHT22;66590;50.734;4.246;2023-01-08T14:20:49;10.70;99.90
53410;DHT22;66590;50.734;4.246;2023-01-08T14:23:20;10.70;99.90
53410;DHT22;66590;50.734;4.246;2023-01-08T14:25:49;10.70;99.90
53410;DHT22;66590;50.734;4.246;2023-01-08T14:28:18;10.80;99.90
53410;DHT22;66590;50.734;4.246;2023-01-08T14:30:52;10.80;99.90
53410;DHT22;66590;50.734;4.246;2023-01-08T14:33:22;10.70;99.90
53410;DHT22;66590;50.734;4.246;2023-01-08T14:35:50;10.70;99.90
53410;DHT22;66590;50.734;4.246;2023-01-08T14:38:17;10.70;99.90
53410;DHT22;66590;50.734;4.246;2023-01-08T14:40:47;10.70;99.90
53410;DHT22;66590;50.734;4.246;2023-01-08T14:43:17;10.70;99.90
53410;DHT22;66590;50.734;4.246;2023-01-08T14:45:45;10.60;99.90
53410;DHT22;66590;50.734;4.246;2023-01-08T14:48:19;10.70;99.90
53410;DHT22;66590;50.734;4.246;2023-01-08T14:51:00;10.50;99.90
53410;DHT22;66590;50.734;4.246;2023-01-08T14:53:30;10.40;99.90
53410;DHT22;66590;50.734;4.246;2023-01-08T14:55:59;10.50;99.90
53410;DHT22;66590;50.734;4.246;2023-01-08T14:58:28;10.50;99.90
53410;DHT22;66590;50.734;4.246;2023-01-08T15:00:57;10.50;99.90
53410;DHT22;66590;50.734;4.246;2023-01-08T15:03:32;10.60;99.90
53410;DHT22;66590;50.734;4.246;2023-01-08T15:06:00;10.50;99.90
53410;DHT22;66590;50.734;4.246;2023-01-08T15:08:32;10.50;99.90
53410;DHT22;66590;50.734;4.246;2023-01-08T15:11:02;10.60;99.90
53410;DHT22;66590;50.734;4.246;2023-01-08T15:13:31;10.60;99.90
53410;DHT22;66590;50.734;4.246;2023-01-08T15:16:01;10.70;99.90
53410;DHT22;66590;50.734;4.246;2023-01-08T15:18:34;10.60;99.90
53410;DHT22;66590;50.734;4.246;2023-01-08T15:21:01;10.70;99.90
53410;DHT22;66590;50.734;4.246;2023-01-08T15:23:34;10.70;99.90
53410;DHT22;66590;50.734;4.246;2023-01-08T15:26:03;10.70;99.90
53410;DHT22;66590;50.734;4.246;2023-01-08T15:28:30;10.60;99.90
53410;DHT22;66590;50.734;4.246;2023-01-08T15:30:58;10.60;99.90
53410;DHT22;66590;50.734;4.246;2023-01-08T15:33:25;10.60;99.90
53410;DHT22;66590;50.734;4.246;2023-01-08T15:35:54;10.50;99.90
53410;DHT22;66590;50.734;4.246;2023-01-08T15:38:21;10.40;99.90
53410;DHT22;66590;50.734;4.246;2023-01-08T15:40:48;10.60;99.90
53410;DHT22;66590;50.734;4.246;2023-01-08T15:43:17;10.60;99.90
53410;DHT22;66590;50.734;4.246;2023-01-08T15:45:45;10.60;99.90
53410;DHT22;66590;50.734;4.246;2023-01-08T15:48:13;10.60;99.90
53410;DHT22;66590;50.734;4.246;2023-01-08T15:50:42;10.60;99.90
53410;DHT22;66590;50.734;4.246;2023-01-08T15:53:15;10.60;99.90
53410;DHT22;66590;50.734;4.246;2023-01-08T15:55:43;10.70;99.90
53410;DHT22;66590;50.734;4.246;2023-01-08T15:58:11;10.60;99.90
53410;DHT22;66590;50.734;4.246;2023-01-08T16:00:39;10.60;99.90
53410;DHT22;66590;50.734;4.246;2023-01-08T16:03:06;10.60;99.90
53410;DHT22;66590;50.734;4.246;2023-01-08T16:05:34;10.60;99.90
53410;DHT22;66590;50.734;4.246;2023-01-08T16:08:02;10.60;99.90
53410;DHT22;66590;50.734;4.246;2023-01-08T16:10:31;10.60;99.90